createdAt,value
2022-09-30T00:01:55.833Z,1.93
2022-09-30T00:04:25.434Z,1.70
2022-09-30T00:06:55.059Z,1.67
2022-09-30T00:09:23.749Z,1.50
2022-09-30T00:11:52.145Z,1.60
2022-09-30T00:14:24.561Z,1.63
2022-09-30T00:16:52.718Z,1.80
2022-09-30T00:19:21.227Z,1.60
2022-09-30T00:21:49.433Z,1.50
2022-09-30T00:24:17.558Z,1.70
2022-09-30T00:26:45.857Z,1.67
2022-09-30T00:29:14.261Z,1.60
2022-09-30T00:31:44.197Z,1.80
2022-09-30T00:34:12.641Z,1.60
2022-09-30T00:36:44.592Z,2.90
2022-09-30T00:39:15.092Z,1.70
2022-09-30T00:41:43.472Z,1.33
2022-09-30T00:44:57.449Z,1.40
2022-09-30T00:47:55.351Z,1.70
2022-09-30T00:50:39.794Z,1.60
2022-09-30T00:53:15.298Z,1.67
2022-09-30T00:55:51.911Z,1.47
2022-09-30T00:58:26.369Z,1.60
2022-09-30T01:00:55.097Z,1.90
2022-09-30T01:03:25.591Z,1.50
2022-09-30T01:05:53.967Z,1.50
2022-09-30T01:08:23.439Z,1.70
2022-09-30T01:10:51.667Z,1.77
2022-09-30T01:13:22.487Z,1.90
2022-09-30T01:16:16.574Z,1.47
2022-09-30T01:18:57.246Z,1.60
2022-09-30T01:21:52.164Z,1.77
2022-09-30T01:24:46.701Z,1.50
2022-09-30T01:27:44.333Z,1.50
2022-09-30T01:30:16.232Z,1.60
2022-09-30T01:33:05.723Z,2.00
2022-09-30T01:35:43.294Z,1.80
2022-09-30T01:38:20.097Z,1.77
2022-09-30T01:40:55.015Z,2.13
2022-09-30T01:43:32.414Z,1.83
2022-09-30T01:46:05.678Z,1.50
2022-09-30T01:48:40.714Z,1.67
2022-09-30T01:51:14.273Z,1.70
2022-09-30T01:53:47.889Z,1.70
2022-09-30T01:56:22.499Z,1.50
2022-09-30T01:58:57.229Z,1.70
2022-09-30T02:01:31.739Z,1.80
2022-09-30T02:04:06.987Z,1.60
2022-09-30T02:06:40.488Z,1.83
2022-09-30T02:09:14.640Z,1.67
2022-09-30T02:11:44.154Z,1.47
2022-09-30T02:14:18.144Z,1.97
2022-09-30T02:16:51.958Z,1.97
2022-09-30T02:19:25.626Z,1.97
2022-09-30T02:22:01.064Z,1.60
2022-09-30T02:24:37.122Z,1.60
2022-09-30T02:27:09.500Z,2.13
2022-09-30T02:29:43.023Z,1.90
2022-09-30T02:32:16.509Z,1.90
2022-09-30T02:34:51.423Z,1.57
2022-09-30T02:37:25.607Z,1.57
2022-09-30T02:39:59.494Z,1.80
2022-09-30T02:42:30.232Z,1.93
2022-09-30T02:45:05.999Z,1.70
2022-09-30T02:47:47.732Z,1.83
2022-09-30T02:50:21.864Z,1.73
2022-09-30T02:53:01.558Z,2.00
2022-09-30T02:55:33.642Z,1.80
2022-09-30T02:58:12.217Z,1.90
2022-09-30T03:00:41.191Z,1.80
2022-09-30T03:03:16.940Z,1.70
2022-09-30T03:05:47.045Z,1.60
2022-09-30T03:08:15.384Z,1.80
2022-09-30T03:10:44.447Z,2.03
2022-09-30T03:13:35.033Z,1.90
2022-09-30T03:16:15.182Z,1.90
2022-09-30T03:18:58.635Z,2.00
2022-09-30T03:21:43.921Z,1.77
2022-09-30T03:24:32.131Z,1.70
2022-09-30T03:27:13.221Z,1.90
2022-09-30T03:29:49.132Z,1.73
2022-09-30T03:32:32.746Z,1.33
2022-09-30T03:35:08.188Z,1.70
2022-09-30T03:37:46.274Z,1.60
2022-09-30T03:40:24.405Z,1.67
2022-09-30T03:42:57.246Z,1.80
2022-09-30T03:45:32.986Z,1.90
2022-09-30T03:48:06.389Z,1.67
2022-09-30T03:50:38.111Z,1.90
2022-09-30T03:53:12.768Z,2.00
2022-09-30T03:55:52.506Z,2.37
2022-09-30T03:58:23.423Z,2.23
2022-09-30T04:00:54.406Z,1.90
2022-09-30T04:03:24.125Z,2.07
2022-09-30T04:05:52.446Z,2.13
2022-09-30T04:08:23.247Z,1.93
2022-09-30T04:10:51.302Z,1.70
2022-09-30T04:13:19.462Z,1.87
2022-09-30T04:15:55.258Z,1.80
2022-09-30T04:18:23.754Z,1.90
2022-09-30T04:20:51.872Z,2.03
2022-09-30T04:23:21.669Z,2.00
2022-09-30T04:25:53.964Z,2.20
2022-09-30T04:28:22.784Z,2.10
2022-09-30T04:30:51.276Z,2.17
2022-09-30T04:33:19.433Z,2.60
2022-09-30T04:35:47.901Z,2.53
2022-09-30T04:38:16.459Z,2.80
2022-09-30T04:40:45.989Z,2.80
2022-09-30T04:43:14.710Z,2.23
2022-09-30T04:45:45.375Z,2.40
2022-09-30T04:48:13.788Z,2.50
2022-09-30T04:50:42.564Z,2.77
2022-09-30T04:53:12.867Z,2.43
2022-09-30T04:55:41.007Z,2.00
2022-09-30T04:58:10.642Z,2.00
2022-09-30T05:00:39.515Z,2.20
2022-09-30T05:03:07.792Z,2.23
2022-09-30T05:05:36.090Z,1.87
2022-09-30T05:08:05.458Z,2.17
2022-09-30T05:10:33.737Z,2.40
2022-09-30T05:13:02.507Z,2.37
2022-09-30T05:15:31.936Z,2.80
2022-09-30T05:18:00.251Z,2.70
2022-09-30T05:20:28.705Z,2.53
2022-09-30T05:22:57.675Z,2.57
2022-09-30T05:25:25.825Z,2.80
2022-09-30T05:27:54.150Z,2.40
2022-09-30T05:30:22.244Z,1.90
2022-09-30T05:32:51.904Z,2.77
2022-09-30T05:35:20.102Z,2.50
2022-09-30T05:37:48.251Z,2.60
2022-09-30T05:40:16.497Z,2.30
2022-09-30T05:42:47.327Z,2.27
2022-09-30T05:45:15.619Z,2.27
2022-09-30T05:47:44.246Z,2.30
2022-09-30T05:50:14.079Z,2.30
2022-09-30T05:52:42.245Z,2.30
2022-09-30T05:55:10.999Z,2.40
2022-09-30T05:57:39.620Z,2.40
2022-09-30T06:00:08.603Z,2.03
2022-09-30T06:02:38.597Z,2.17
2022-09-30T06:05:07.584Z,2.03
2022-09-30T06:07:38.033Z,2.07
2022-09-30T06:10:09.300Z,1.80
2022-09-30T06:12:38.573Z,2.30
2022-09-30T06:15:07.922Z,2.23
2022-09-30T06:17:36.421Z,2.03
2022-09-30T06:20:05.352Z,3.10
2022-09-30T06:22:37.090Z,2.33
2022-09-30T06:25:07.151Z,2.20
2022-09-30T06:27:35.809Z,2.20
2022-09-30T06:30:03.973Z,1.90
2022-09-30T06:32:32.224Z,2.30
2022-09-30T06:35:00.673Z,2.23
2022-09-30T06:37:29.072Z,1.80
2022-09-30T06:39:58.702Z,2.17
2022-09-30T06:42:26.910Z,2.20
2022-09-30T06:44:55.792Z,2.17
2022-09-30T06:47:25.816Z,2.23
2022-09-30T06:49:58.742Z,2.10
2022-09-30T06:52:27.955Z,2.00
2022-09-30T06:54:57.508Z,2.40
2022-09-30T06:57:27.920Z,2.17
2022-09-30T06:59:56.642Z,2.27
2022-09-30T07:02:25.272Z,2.10
2022-09-30T07:04:53.789Z,2.53
2022-09-30T07:07:22.330Z,2.30
2022-09-30T07:09:51.038Z,2.30
2022-09-30T07:12:20.669Z,1.90
2022-09-30T07:14:51.293Z,1.70
2022-09-30T07:17:19.785Z,1.90
2022-09-30T07:19:48.672Z,2.20
2022-09-30T07:22:29.635Z,2.07
2022-09-30T07:24:59.774Z,2.30
2022-09-30T07:27:28.997Z,1.70
2022-09-30T07:30:24.510Z,2.10
2022-09-30T07:32:47.634Z,2.20
2022-09-30T07:35:16.278Z,1.80
2022-09-30T07:37:44.598Z,1.80
2022-09-30T07:40:13.663Z,1.93
2022-09-30T07:42:46.050Z,1.93
2022-09-30T07:45:17.349Z,2.10
2022-09-30T07:47:49.668Z,2.03
2022-09-30T07:50:21.257Z,2.30
2022-09-30T07:52:49.386Z,1.70
2022-09-30T07:55:17.566Z,1.83
2022-09-30T07:57:45.822Z,2.00
2022-09-30T08:00:41.199Z,1.90
2022-09-30T08:03:04.238Z,2.30
2022-09-30T08:05:32.480Z,1.83
2022-09-30T08:08:00.583Z,1.90
2022-09-30T08:10:28.826Z,1.70
2022-09-30T08:12:59.209Z,1.80
2022-09-30T08:15:30.682Z,2.00
2022-09-30T08:17:58.919Z,2.13
2022-09-30T08:20:27.177Z,2.20
2022-09-30T08:22:55.792Z,2.10
2022-09-30T08:25:24.271Z,1.97
2022-09-30T08:27:52.486Z,1.87
2022-09-30T08:30:20.801Z,2.00
2022-09-30T08:32:50.637Z,2.20
2022-09-30T08:35:18.789Z,1.87
2022-09-30T08:37:47.130Z,2.13
2022-09-30T08:40:22.547Z,1.53
2022-09-30T08:43:05.385Z,2.30
2022-09-30T08:45:42.824Z,1.80
2022-09-30T08:48:23.651Z,1.73
2022-09-30T08:51:04.094Z,1.70
2022-09-30T08:53:36.937Z,1.73
2022-09-30T08:56:06.818Z,1.73
2022-09-30T08:58:37.983Z,2.03
2022-09-30T09:01:14.588Z,2.20
2022-09-30T09:03:45.705Z,1.93
2022-09-30T09:06:25.536Z,1.50
2022-09-30T09:09:18.426Z,1.93
2022-09-30T09:12:02.766Z,1.60
2022-09-30T09:14:41.235Z,1.50
2022-09-30T09:17:21.876Z,1.40
2022-09-30T09:19:59.882Z,1.80
2022-09-30T09:22:29.596Z,1.73
2022-09-30T09:24:59.194Z,1.53
2022-09-30T09:27:32.237Z,1.70
2022-09-30T09:30:06.699Z,1.60
2022-09-30T09:32:35.938Z,1.67
2022-09-30T09:35:15.212Z,3.50
2022-09-30T09:38:10.862Z,1.70
2022-09-30T09:40:57.394Z,1.50
2022-09-30T09:43:36.199Z,1.50
2022-09-30T09:46:14.643Z,1.50
2022-09-30T09:48:44.918Z,1.50
2022-09-30T09:51:22.784Z,1.30
2022-09-30T09:53:53.134Z,1.80
2022-09-30T09:56:26.350Z,1.70
2022-09-30T09:59:09.572Z,1.40
2022-09-30T10:01:39.957Z,1.50
2022-09-30T10:04:15.767Z,1.60
2022-09-30T10:06:49.088Z,1.60
2022-09-30T10:09:30.078Z,1.80
2022-09-30T10:12:29.677Z,1.40
2022-09-30T10:15:03.678Z,1.50
2022-09-30T10:17:33.856Z,1.23
2022-09-30T10:20:07.188Z,1.57
2022-09-30T10:22:37.958Z,1.40
2022-09-30T10:25:20.490Z,1.40
2022-09-30T10:27:52.528Z,1.63
2022-09-30T10:30:50.447Z,1.53
2022-09-30T10:33:26.933Z,1.60
2022-09-30T10:35:58.547Z,1.40
2022-09-30T10:38:29.931Z,1.27
2022-09-30T10:40:59.194Z,1.60
2022-09-30T10:43:31.597Z,1.50
2022-09-30T10:48:55.115Z,1.50
2022-09-30T10:51:34.178Z,1.53
2022-09-30T10:54:05.643Z,1.50
2022-09-30T10:56:38.256Z,1.33
2022-09-30T10:59:16.670Z,1.87
2022-09-30T11:01:52.521Z,1.60
2022-09-30T11:04:29.753Z,1.70
2022-09-30T11:07:05.140Z,1.37
2022-09-30T11:09:44.270Z,1.53
2022-09-30T11:12:21.571Z,1.50
2022-09-30T11:14:57.771Z,1.57
2022-09-30T11:17:35.242Z,1.20
2022-09-30T11:20:12.954Z,1.67
2022-09-30T11:22:48.552Z,1.93
2022-09-30T11:25:24.506Z,1.40
2022-09-30T11:28:06.438Z,1.40
2022-09-30T11:30:43.259Z,1.57
2022-09-30T11:33:26.488Z,1.30
2022-09-30T11:36:05.688Z,1.30
2022-09-30T11:38:53.676Z,1.10
2022-09-30T11:41:29.906Z,1.50
2022-09-30T11:44:06.642Z,1.10
2022-09-30T11:46:51.751Z,1.10
2022-09-30T11:49:38.971Z,1.17
2022-09-30T11:52:17.318Z,1.20
2022-09-30T11:54:58.048Z,1.03
2022-09-30T11:57:36.166Z,1.30
2022-09-30T12:00:08.679Z,1.47
2022-09-30T12:02:40.221Z,1.20
2022-09-30T12:05:13.424Z,1.27
2022-09-30T12:07:46.792Z,1.33
2022-09-30T12:10:22.294Z,1.30
2022-09-30T12:12:57.603Z,1.37
2022-09-30T12:15:27.263Z,1.20
2022-09-30T12:18:00.355Z,1.20
2022-09-30T12:20:33.175Z,1.50
2022-09-30T12:23:10.461Z,1.33
2022-09-30T12:25:42.975Z,1.43
2022-09-30T12:28:41.222Z,1.43
2022-09-30T12:31:30.692Z,1.50
2022-09-30T12:34:13.082Z,1.37
2022-09-30T12:37:02.741Z,1.50
2022-09-30T12:39:54.905Z,1.77
2022-09-30T12:42:48.358Z,1.30
2022-09-30T12:45:39.569Z,1.53
2022-09-30T12:48:15.119Z,1.50
2022-09-30T12:50:49.432Z,1.40
2022-09-30T12:53:20.841Z,1.63
2022-09-30T12:55:50.638Z,1.20
2022-09-30T12:58:28.645Z,1.20
2022-09-30T13:01:05.651Z,1.43
2022-09-30T13:03:47.366Z,1.40
2022-09-30T13:06:16.851Z,1.57
2022-09-30T13:09:03.849Z,1.50
2022-09-30T13:11:38.205Z,1.50
2022-09-30T13:14:34.543Z,1.70
2022-09-30T13:17:26.552Z,1.30
2022-09-30T13:19:57.556Z,1.43
2022-09-30T13:22:57.249Z,1.40
2022-09-30T13:25:25.758Z,1.60
2022-09-30T13:28:10.795Z,1.50
2022-09-30T13:30:42.855Z,1.67
2022-09-30T13:33:45.915Z,1.70
2022-09-30T13:36:30.869Z,1.53
2022-09-30T13:39:22.729Z,1.73
2022-09-30T13:42:02.597Z,1.33
2022-09-30T13:44:40.128Z,1.40
2022-09-30T13:47:19.107Z,1.53
2022-09-30T13:49:58.738Z,1.27
2022-09-30T13:52:30.754Z,1.40
2022-09-30T13:55:04.735Z,1.20
2022-09-30T13:57:45.435Z,1.20
2022-09-30T14:00:17.405Z,1.20
2022-09-30T14:03:10.932Z,1.37
2022-09-30T14:06:05.051Z,1.43
2022-09-30T14:09:14.370Z,1.30
2022-09-30T14:12:14.545Z,1.23
2022-09-30T14:15:09.298Z,1.10
2022-09-30T14:17:50.275Z,1.27
2022-09-30T14:20:32.053Z,1.10
2022-09-30T14:23:01.781Z,1.13
2022-09-30T14:25:37.149Z,1.23
2022-09-30T14:28:08.781Z,1.20
2022-09-30T14:30:42.043Z,1.30
2022-09-30T14:33:20.200Z,1.20
2022-09-30T14:35:49.442Z,1.57
2022-09-30T14:38:22.459Z,1.30
2022-09-30T14:40:53.294Z,1.30
2022-09-30T14:43:24.890Z,1.37
2022-09-30T14:45:56.405Z,1.10
2022-09-30T14:48:29.213Z,1.20
2022-09-30T14:51:02.634Z,1.50
2022-09-30T14:53:34.413Z,1.43
2022-09-30T14:56:05.343Z,1.30
2022-09-30T14:58:42.438Z,1.37
2022-09-30T15:01:15.298Z,1.20
2022-09-30T15:03:46.403Z,1.20
2022-09-30T15:06:20.717Z,1.50
2022-09-30T15:08:51.369Z,1.20
2022-09-30T15:11:21.831Z,1.10
2022-09-30T15:13:52.918Z,1.00
2022-09-30T15:16:25.457Z,1.53
2022-09-30T15:18:54.587Z,1.03
2022-09-30T15:21:24.393Z,1.17
2022-09-30T15:23:57.252Z,1.30
2022-09-30T15:26:27.749Z,1.30
2022-09-30T15:28:56.003Z,1.50
2022-09-30T15:31:28.444Z,1.37
2022-09-30T15:34:06.204Z,1.50
2022-09-30T15:36:37.063Z,1.37
2022-09-30T15:39:08.218Z,1.60
2022-09-30T15:41:42.229Z,1.60
2022-09-30T15:44:18.850Z,1.57
2022-09-30T15:47:04.124Z,1.33
2022-09-30T15:49:36.346Z,1.50
2022-09-30T15:52:29.395Z,1.50
2022-09-30T15:54:59.474Z,1.80
2022-09-30T15:57:47.017Z,1.37
2022-09-30T16:00:36.585Z,1.63
2022-09-30T16:03:29.022Z,1.77
2022-09-30T16:06:08.078Z,1.43
2022-09-30T16:08:43.744Z,1.37
2022-09-30T16:11:20.785Z,1.73
2022-09-30T16:13:50.205Z,1.77
2022-09-30T16:16:22.272Z,1.73
2022-09-30T16:18:52.232Z,1.70
2022-09-30T16:21:40.554Z,1.80
2022-09-30T16:24:44.611Z,1.77
2022-09-30T16:27:33.188Z,1.77
2022-09-30T16:30:02.277Z,1.77
2022-09-30T16:32:34.889Z,2.03
2022-09-30T16:35:03.088Z,1.90
2022-09-30T16:37:31.630Z,2.10
2022-09-30T16:40:16.285Z,1.70
2022-09-30T16:42:46.563Z,1.90
2022-09-30T16:45:15.720Z,1.80
2022-09-30T16:47:44.392Z,2.07
2022-09-30T16:50:24.552Z,2.10
2022-09-30T16:52:53.064Z,3.03
2022-09-30T16:55:21.498Z,2.10
2022-09-30T16:57:51.453Z,2.20
2022-09-30T17:00:20.299Z,2.07
2022-09-30T17:02:49.985Z,2.17
2022-09-30T17:05:20.283Z,1.90
2022-09-30T17:07:52.326Z,2.40
2022-09-30T17:10:24.052Z,2.20
2022-09-30T17:12:54.004Z,2.73
2022-09-30T17:15:22.134Z,2.90
2022-09-30T17:17:50.544Z,2.70
2022-09-30T17:20:19.089Z,3.00
2022-09-30T17:22:47.788Z,2.57
2022-09-30T17:25:16.477Z,2.40
2022-09-30T17:27:49.251Z,2.50
2022-09-30T17:30:19.368Z,2.53
2022-09-30T17:32:48.302Z,2.20
2022-09-30T17:35:17.153Z,2.80
2022-09-30T17:37:46.606Z,2.43
2022-09-30T17:40:33.404Z,2.60
2022-09-30T17:43:11.517Z,2.30
2022-09-30T17:45:43.675Z,2.60
2022-09-30T17:48:13.101Z,3.03
2022-09-30T17:50:44.669Z,2.77
2022-09-30T17:53:14.113Z,3.17
2022-09-30T17:55:43.599Z,2.77
2022-09-30T17:58:12.700Z,3.20
2022-09-30T18:00:42.560Z,3.43
2022-09-30T18:03:11.113Z,3.47
2022-09-30T18:05:39.581Z,2.77
2022-09-30T18:08:07.743Z,3.07
2022-09-30T18:10:37.998Z,2.83
2022-09-30T18:13:06.625Z,3.30
2022-09-30T18:15:35.156Z,2.47
2022-09-30T18:18:04.754Z,3.23
2022-09-30T18:20:33.200Z,2.60
2022-09-30T18:23:01.311Z,2.93
2022-09-30T18:25:30.373Z,2.60
2022-09-30T18:28:00.402Z,3.03
2022-09-30T18:30:29.103Z,2.47
2022-09-30T18:32:59.088Z,2.50
2022-09-30T18:35:31.989Z,2.40
2022-09-30T18:38:00.704Z,2.70
2022-09-30T18:40:30.339Z,2.67
2022-09-30T18:43:00.240Z,3.30
2022-09-30T18:45:29.890Z,3.30
2022-09-30T18:47:59.684Z,3.10
2022-09-30T18:50:30.913Z,2.77
2022-09-30T18:53:02.817Z,2.87
2022-09-30T18:55:35.179Z,2.80
2022-09-30T18:58:03.528Z,3.30
2022-09-30T19:00:31.666Z,2.60
2022-09-30T19:03:00.146Z,2.53
2022-09-30T19:05:29.641Z,2.80
2022-09-30T19:07:57.858Z,2.60
2022-09-30T19:10:26.398Z,2.40
2022-09-30T19:12:54.550Z,2.70
2022-09-30T19:15:23.598Z,2.10
2022-09-30T19:17:53.983Z,2.70
2022-09-30T19:20:22.674Z,2.73
2022-09-30T19:22:52.356Z,2.60
2022-09-30T19:25:20.951Z,2.30
2022-09-30T19:27:50.042Z,2.43
2022-09-30T19:30:20.777Z,2.67
2022-09-30T19:32:49.142Z,2.70
2022-09-30T19:35:18.999Z,2.30
2022-09-30T19:37:58.899Z,2.70
2022-09-30T19:43:02.071Z,2.50
2022-09-30T19:45:31.458Z,2.13
2022-09-30T19:48:00.289Z,2.83
2022-09-30T19:50:28.473Z,2.53
2022-09-30T19:52:57.864Z,2.37
2022-09-30T19:55:26.700Z,2.10
2022-09-30T19:57:56.186Z,1.87
2022-09-30T20:00:24.639Z,1.73
2022-09-30T20:02:53.073Z,1.87
2022-09-30T20:05:21.576Z,1.60
2022-09-30T20:07:51.214Z,1.83
2022-09-30T20:10:20.313Z,1.50
2022-09-30T20:12:48.474Z,1.87
2022-09-30T20:15:35.811Z,1.73
2022-09-30T20:18:05.177Z,1.60
2022-09-30T20:20:37.423Z,1.43
2022-09-30T20:23:06.211Z,1.73
2022-09-30T20:25:35.529Z,1.67
2022-09-30T20:28:05.191Z,1.53
2022-09-30T20:30:38.777Z,1.60
2022-09-30T20:33:07.181Z,1.87
2022-09-30T20:35:36.864Z,1.67
2022-09-30T20:38:05.364Z,1.60
2022-09-30T20:40:34.878Z,1.60
2022-09-30T20:43:04.183Z,1.80
2022-09-30T20:45:32.411Z,1.60
2022-09-30T20:48:02.878Z,1.53
2022-09-30T20:50:36.891Z,1.60
2022-09-30T20:53:10.977Z,1.70
2022-09-30T20:55:40.894Z,1.37
2022-09-30T20:58:10.847Z,1.60
2022-09-30T21:00:41.520Z,1.73
2022-09-30T21:03:12.935Z,1.70
2022-09-30T21:05:41.723Z,1.43
2022-09-30T21:08:10.410Z,1.70
2022-09-30T21:10:38.664Z,1.50
2022-09-30T21:13:11.546Z,1.53
2022-09-30T21:15:40.125Z,1.60
2022-09-30T21:18:10.251Z,1.53
2022-09-30T21:20:38.667Z,1.20
2022-09-30T21:23:07.113Z,1.40
2022-09-30T21:25:35.530Z,1.70
2022-09-30T21:28:04.837Z,1.50
2022-09-30T21:30:33.107Z,1.50
2022-09-30T21:33:01.337Z,1.57
2022-09-30T21:35:30.845Z,1.57
2022-09-30T21:37:59.137Z,1.60
2022-09-30T21:40:28.034Z,1.77
2022-09-30T21:42:56.426Z,1.43
2022-09-30T21:45:25.334Z,2.13
2022-09-30T21:48:02.498Z,1.83
2022-09-30T21:50:32.888Z,2.47
2022-09-30T21:53:01.023Z,2.00
2022-09-30T21:55:30.643Z,2.00
2022-09-30T21:57:59.449Z,2.40
2022-09-30T22:00:28.056Z,2.30
2022-09-30T22:02:56.249Z,1.80
2022-09-30T22:05:24.435Z,1.83
2022-09-30T22:07:53.965Z,1.80
2022-09-30T22:10:22.337Z,1.80
2022-09-30T22:12:51.239Z,2.07
2022-09-30T22:15:19.412Z,1.87
2022-09-30T22:17:47.716Z,1.70
2022-09-30T22:20:16.265Z,1.43
2022-09-30T22:22:44.521Z,1.93
2022-09-30T22:25:14.398Z,2.00
2022-09-30T22:27:43.176Z,1.93
2022-09-30T22:30:11.853Z,1.80
2022-09-30T22:32:40.061Z,1.83
2022-09-30T22:35:26.412Z,2.07
2022-09-30T22:38:12.219Z,2.27
2022-09-30T22:40:41.912Z,2.17
2022-09-30T22:43:10.077Z,1.80
2022-09-30T22:45:38.211Z,1.80
2022-09-30T22:48:06.833Z,2.10
2022-09-30T22:50:36.901Z,2.20
2022-09-30T22:53:05.325Z,2.27
2022-09-30T22:55:34.944Z,2.20
2022-09-30T22:58:04.466Z,2.00
2022-09-30T23:00:32.656Z,2.03
2022-09-30T23:03:00.973Z,1.87
2022-09-30T23:05:29.073Z,1.87
2022-09-30T23:07:57.513Z,1.97
2022-09-30T23:10:26.682Z,1.90
2022-09-30T23:12:54.784Z,2.17
2022-09-30T23:15:24.490Z,2.60
2022-09-30T23:17:52.676Z,2.67
2022-09-30T23:20:20.960Z,1.93
2022-09-30T23:22:49.078Z,2.53
2022-09-30T23:25:17.648Z,2.53
2022-09-30T23:27:48.953Z,2.70
2022-09-30T23:30:17.893Z,2.80
2022-09-30T23:32:47.726Z,2.23
2022-09-30T23:35:15.929Z,2.80
2022-09-30T23:37:44.103Z,3.33
2022-09-30T23:40:12.538Z,2.87
2022-09-30T23:42:40.640Z,2.60
2022-09-30T23:45:10.161Z,2.73
2022-09-30T23:47:38.625Z,3.50
2022-09-30T23:50:09.382Z,2.93
2022-09-30T23:52:37.695Z,2.80
2022-09-30T23:55:06.401Z,2.93
2022-09-30T23:57:34.859Z,3.50
